Time;durP1;ratioP1;P1;durP2;ratioP2;P2;SDS_P1;SDS_P2;PMS_P1;PMS_P2;Temp;Humidity;BMP_temperature;BMP_pressure;BME280_temperature;BME280_humidity;BME280_pressure;Samples;Min_cycle;Max_cycle;Signal;HPM_P1;HPM_P2
2022/09/21 00:01:01;;;;;;;3.00;1.90;;;23.00;51.60;;;;;;6005119;23;20407;-86
2022/09/21 00:06:53;;;;;;;;;;;;;;;;;;;;;
2022/09/21 00:09:43;;;;;;;5.90;3.17;;;22.90;51.50;;;;;;6052850;23;20384;-85
2022/09/21 00:12:30;;;;;;;3.13;2.47;;;22.90;51.50;;;;;;6055902;23;20431;-85
2022/09/21 00:15:11;;;;;;;3.00;2.10;;;22.90;51.50;;;;;;6031223;23;20384;-85
2022/09/21 00:18:17;;;;;;;3.60;2.47;;;22.90;51.50;;;;;;6031304;23;20392;-85
2022/09/21 00:21:15;;;;;;;5.60;2.80;;;22.90;51.50;;;;;;6121108;23;20670;-86
2022/09/21 00:24:21;;;;;;;;;;;;;;;;;;;;;
2022/09/21 00:27:28;;;;;;;2.97;2.33;;;22.90;51.50;;;;;;6169688;23;20730;-86
2022/09/21 00:30:12;;;;;;;3.73;2.47;;;22.90;51.50;;;;;;6170349;23;20428;-86
2022/09/21 00:43:50;;;;;;;3.43;2.40;;;22.90;51.60;;;;;;6290818;22;20356;-86
2022/09/21 00:50:35;;;;;;;;;;;;;;;;;;;;;
2022/09/21 00:53:30;;;;;;;3.27;2.30;;;22.80;51.50;;;;;;6229941;23;20453;-86
2022/09/21 00:56:32;;;;;;;4.20;3.67;;;22.80;52.10;;;;;;6231115;23;20457;-86
2022/09/21 01:05:39;;;;;;;;;;;;;;;;;;;;;
2022/09/21 01:08:30;;;;;;;3.50;2.40;;;22.90;51.60;;;;;;6198504;23;20402;-86
2022/09/21 01:11:26;;;;;;;3.60;2.13;;;22.90;51.60;;;;;;6173345;23;20398;-86
2022/09/21 01:14:03;;;;;;;2.13;1.80;;;22.90;51.60;;;;;;6175905;23;20391;-87
2022/09/21 01:17:02;;;;;;;4.10;3.23;;;22.80;51.50;;;;;;6176032;23;20371;-87
2022/09/21 01:20:11;;;;;;;3.47;2.77;;;22.90;51.60;;;;;;6192884;23;20373;-87
2022/09/21 01:23:16;;;;;;;3.30;2.27;;;22.90;51.60;;;;;;6235661;23;20472;-86
2022/09/21 01:26:03;;;;;;;5.43;2.87;;;22.80;51.50;;;;;;6235700;23;20392;-86
2022/09/21 01:29:16;;;;;;;4.20;2.50;;;22.90;51.60;;;;;;6235202;23;20453;-86
2022/09/21 01:32:05;;;;;;;3.87;2.30;;;22.80;51.50;;;;;;6240973;22;20424;-86
2022/09/21 01:35:08;;;;;;;4.00;3.50;;;22.80;51.50;;;;;;6293000;22;20852;-87
2022/09/21 01:38:07;;;;;;;3.63;2.77;;;22.80;51.50;;;;;;6293055;22;20633;-87
2022/09/21 01:40:49;;;;;;;3.20;1.57;;;22.80;51.50;;;;;;6292150;22;20770;-86
2022/09/21 01:43:33;;;;;;;3.67;2.17;;;22.80;51.50;;;;;;6292746;22;20384;-86
2022/09/21 01:46:17;;;;;;;2.80;1.80;;;22.80;51.50;;;;;;6293063;22;20406;-86
2022/09/21 01:55:27;;;;;;;2.60;1.93;;;22.90;51.50;;;;;;6295145;22;20415;-85
2022/09/21 01:58:45;;;;;;;2.50;2.30;;;22.80;51.50;;;;;;6293061;22;20377;-85
2022/09/21 02:01:58;;;;;;;;;;;;;;;;;;;;;
2022/09/21 02:05:01;;;;;;;;;;;;;;;;;;;;;
2022/09/21 02:07:58;;;;;;;;;;;;;;;;;;;;;
2022/09/21 02:11:07;;;;;;;3.70;2.53;;;22.80;51.50;;;;;;6201234;23;20395;-86
2022/09/21 02:13:49;;;;;;;2.43;1.97;;;22.80;51.50;;;;;;6174371;23;20383;-86
2022/09/21 02:17:01;;;;;;;2.20;2.00;;;22.80;51.50;;;;;;6175245;23;20375;-85
2022/09/21 02:20:13;;;;;;;2.03;1.73;;;22.80;51.50;;;;;;6225731;23;20374;-86
2022/09/21 02:22:51;;;;;;;2.70;1.80;;;22.80;51.50;;;;;;6224728;23;20389;-85
2022/09/21 02:25:46;;;;;;;2.70;2.07;;;22.80;51.50;;;;;;6226373;23;20391;-85
2022/09/21 02:28:34;;;;;;;3.27;2.37;;;22.80;51.50;;;;;;6227270;23;20423;-86
2022/09/21 02:31:25;;;;;;;2.90;2.27;;;22.80;51.50;;;;;;6226993;23;20471;-85
2022/09/21 02:34:19;;;;;;;2.73;2.50;;;22.80;51.50;;;;;;6226703;23;20390;-86
2022/09/21 02:37:21;;;;;;;2.80;1.87;;;22.80;51.50;;;;;;6202022;23;20523;-86
2022/09/21 02:40:36;;;;;;;2.80;2.00;;;22.80;51.50;;;;;;6200173;23;20466;-86
2022/09/21 02:43:33;;;;;;;;;;;;;;;;;;;;;
2022/09/21 02:46:54;;;;;;;2.73;1.97;;;22.80;51.50;;;;;;6170874;23;20400;-86
2022/09/21 02:49:50;;;;;;;2.67;1.80;;;22.80;51.50;;;;;;6137031;23;20462;-86
2022/09/21 02:52:36;;;;;;;5.07;2.37;;;22.80;51.50;;;;;;6142283;23;20411;-86
2022/09/21 02:55:22;;;;;;;2.70;2.37;;;22.80;51.50;;;;;;6147596;23;20384;-86
2022/09/21 02:58:34;;;;;;;2.47;2.00;;;22.80;51.50;;;;;;6172349;23;20387;-85
2022/09/21 03:01:27;;;;;;;3.50;2.67;;;22.80;51.40;;;;;;6147592;23;20378;-85
2022/09/21 03:04:11;;;;;;;2.53;2.07;;;22.80;51.50;;;;;;6147249;23;20820;-86
2022/09/21 03:06:58;;;;;;;2.80;2.10;;;22.80;51.50;;;;;;6205006;23;20366;-86
2022/09/21 03:09:40;;;;;;;3.10;2.00;;;22.80;51.50;;;;;;6237406;23;20377;-85
2022/09/21 03:12:46;;;;;;;;;;;;;;;;;;;;;
2022/09/21 03:15:52;;;;;;;;;;;;;;;;;;;;;
2022/09/21 03:18:50;;;;;;;3.80;2.40;;;22.80;51.50;;;;;;6236295;23;20396;-85
2022/09/21 03:21:30;;;;;;;3.40;2.00;;;22.80;51.50;;;;;;6235678;23;20403;-85
2022/09/21 03:27:40;;;;;;;2.20;1.90;;;22.80;51.50;;;;;;6262368;23;20371;-85
2022/09/21 03:30:18;;;;;;;3.00;2.10;;;22.80;51.50;;;;;;6237402;23;20449;-86
2022/09/21 03:33:05;;;;;;;2.90;2.17;;;22.80;51.50;;;;;;6233332;23;20421;-86
2022/09/21 03:36:00;;;;;;;3.30;1.93;;;22.80;51.60;;;;;;6233353;23;20391;-85
2022/09/21 03:38:37;;;;;;;2.50;2.27;;;22.80;51.50;;;;;;6212804;23;20378;-85
2022/09/21 03:41:31;;;;;;;;;;;;;;;;;;;;;
2022/09/21 03:44:30;;;;;;;2.20;1.80;;;22.80;51.50;;;;;;6200299;23;20379;-85
2022/09/21 03:50:14;;;;;;;;;;;;;;;;;;;;;
2022/09/21 03:56:45;;;;;;;2.50;1.70;;;22.80;51.50;;;;;;6190656;23;20373;-85
2022/09/21 04:02:58;;;;;;;1.93;1.80;;;22.70;51.40;;;;;;6193451;23;20375;-86
2022/09/21 04:05:41;;;;;;;2.97;2.30;;;22.70;51.40;;;;;;6176399;23;20443;-86
2022/09/21 04:08:25;;;;;;;2.17;1.97;;;22.70;51.50;;;;;;6170160;23;20820;-86
2022/09/21 04:10:57;;;;;;;2.10;1.90;;;22.70;51.40;;;;;;6175749;23;20374;-86
2022/09/21 04:13:34;;;;;;;5.40;3.40;;;22.70;51.40;;;;;;6176971;23;20486;-86
2022/09/21 04:16:17;;;;;;;3.00;1.73;;;22.70;51.40;;;;;;6176865;23;20390;-86
2022/09/21 04:19:07;;;;;;;2.23;1.50;;;22.70;51.40;;;;;;6175162;23;20380;-87
2022/09/21 04:21:50;;;;;;;2.57;1.73;;;22.70;51.40;;;;;;6176109;23;20435;-86
2022/09/21 04:24:27;;;;;;;2.63;1.60;;;22.70;51.40;;;;;;6176566;23;20379;-87
2022/09/21 04:27:22;;;;;;;2.43;1.47;;;22.70;51.40;;;;;;6200420;23;20427;-88
2022/09/21 04:29:59;;;;;;;2.40;1.90;;;22.70;51.40;;;;;;6176160;23;20480;-87
2022/09/21 04:32:40;;;;;;;3.00;2.00;;;22.70;51.40;;;;;;6174692;23;20469;-87
2022/09/21 04:38:56;;;;;;;2.27;1.97;;;22.70;51.40;;;;;;6167298;23;20828;-86
2022/09/21 04:41:42;;;;;;;3.10;1.70;;;22.70;51.40;;;;;;6162175;23;20375;-85
2022/09/21 04:44:35;;;;;;;1.83;1.67;;;22.70;51.40;;;;;;6174404;23;20449;-86
2022/09/21 04:47:22;;;;;;;4.03;1.90;;;22.70;51.40;;;;;;6151036;23;20450;-87
2022/09/21 04:50:18;;;;;;;2.53;2.07;;;22.70;51.40;;;;;;6177657;23;20367;-87
2022/09/21 04:53:04;;;;;;;3.30;2.00;;;22.70;51.40;;;;;;6176597;23;20415;-87
2022/09/21 04:55:57;;;;;;;4.00;2.07;;;22.70;51.40;;;;;;6176582;23;20378;-87
2022/09/21 04:58:35;;;;;;;2.43;2.03;;;22.70;51.40;;;;;;6176963;23;20376;-87
2022/09/21 05:01:36;;;;;;;4.70;2.33;;;22.80;51.50;;;;;;6176461;23;20381;-87
2022/09/21 05:04:15;;;;;;;3.13;1.80;;;22.70;51.40;;;;;;6175115;23;20426;-88
2022/09/21 05:07:15;;;;;;;1.70;1.37;;;22.80;51.50;;;;;;6175643;23;20382;-87
2022/09/21 05:13:18;;;;;;;2.50;2.03;;;22.70;51.40;;;;;;6200164;23;20417;-87
2022/09/21 05:16:25;;;;;;;3.93;2.50;;;22.70;51.40;;;;;;6152100;23;20375;-86
2022/09/21 05:19:22;;;;;;;;;;;;;;;;;;;;;
2022/09/21 05:22:09;;;;;;;3.07;2.50;;;22.70;51.40;;;;;;6055595;23;20904;-86
2022/09/21 05:24:51;;;;;;;2.03;1.70;;;22.70;51.40;;;;;;6055364;23;20442;-86
2022/09/21 05:27:27;;;;;;;3.17;2.10;;;22.70;51.40;;;;;;6054856;23;20455;-87
2022/09/21 05:30:19;;;;;;;2.20;2.00;;;22.70;51.40;;;;;;6054309;23;20417;-87
2022/09/21 05:33:31;;;;;;;;;;;;;;;;;;;;;
2022/09/21 05:43:06;;;;;;;2.63;2.13;;;22.70;51.40;;;;;;5914422;24;20375;-87
2022/09/21 05:45:51;;;;;;;2.30;2.00;;;22.70;51.40;;;;;;5913475;24;20437;-87
2022/09/21 05:52:09;;;;;;;3.93;2.63;;;22.70;51.50;;;;;;5914582;24;20583;-87
2022/09/21 05:55:01;;;;;;;2.03;1.60;;;22.70;51.50;;;;;;5894613;24;20464;-87
2022/09/21 05:58:21;;;;;;;2.50;1.73;;;22.70;51.50;;;;;;5998771;23;20438;-86
2022/09/21 06:08:02;;;;;;;4.87;2.23;;;22.70;51.50;;;;;;6055983;23;20416;-86
2022/09/21 06:23:51;;;;;;;2.93;2.43;;;22.70;51.50;;;;;;6173679;23;20475;-86
2022/09/21 06:26:36;;;;;;;2.90;2.37;;;22.70;51.50;;;;;;6146528;23;20440;-86
2022/09/21 06:29:45;;;;;;;1.87;1.67;;;22.70;51.50;;;;;;6194412;23;20679;-87
2022/09/21 06:32:25;;;;;;;4.20;2.60;;;22.70;51.50;;;;;;6226982;23;20439;-87
2022/09/21 06:35:22;;;;;;;2.90;2.03;;;22.60;51.50;;;;;;6263775;23;20480;-87
2022/09/21 06:51:33;;;;;;;2.00;1.77;;;22.80;51.60;;;;;;6152716;23;20356;-86
2022/09/21 06:54:03;;;;;;;2.10;1.90;;;22.80;51.60;;;;;;6147941;23;20457;-86
2022/09/21 07:07:46;;;;;;;4.63;3.70;;;22.80;51.50;;;;;;6267191;22;20436;-85
2022/09/21 07:10:42;;;;;;;8.07;2.20;;;22.80;51.50;;;;;;6296321;22;20361;-86
2022/09/21 07:13:37;;;;;;;2.60;2.00;;;22.80;51.40;;;;;;6294562;22;20802;-86
2022/09/21 07:26:29;;;;;;;2.00;1.60;;;22.80;51.40;;;;;;6203069;23;20780;-85
2022/09/21 07:29:21;;;;;;;2.47;1.67;;;22.80;51.40;;;;;;6198781;23;20388;-87
2022/09/21 07:39:18;;;;;;;;;;;;;;;;;;;;;
2022/09/21 07:42:35;;;;;;;2.87;2.40;;;22.80;51.50;;;;;;6142591;23;20384;-86
2022/09/21 07:48:47;;;;;;;3.73;2.63;;;22.80;51.40;;;;;;6055877;23;20370;-86
2022/09/21 07:54:22;;;;;;;2.37;2.17;;;22.80;51.50;;;;;;6099712;23;20408;-87
2022/09/21 08:00:33;;;;;;;2.30;2.10;;;22.80;51.40;;;;;;6261571;23;20421;-86
2022/09/21 08:03:08;;;;;;;1.97;1.67;;;22.80;51.40;;;;;;6256220;23;20373;-86
2022/09/21 08:09:15;;;;;;;2.47;1.90;;;22.80;51.40;;;;;;6225581;22;20411;-86
2022/09/21 08:19:25;;;;;;;2.03;1.50;;;22.80;51.40;;;;;;6201746;22;20436;-87
2022/09/21 08:28:39;;;;;;;2.20;2.00;;;22.80;51.40;;;;;;6201591;23;20398;-87
2022/09/21 08:34:52;;;;;;;3.80;3.40;;;22.80;51.40;;;;;;6096583;23;20691;-87
2022/09/21 08:37:43;;;;;;;;;;;;;;;;;;;;;
2022/09/21 08:44:32;;;;;;;2.00;1.80;;;22.80;51.30;;;;;;6113165;23;20374;-86
2022/09/21 08:51:15;;;;;;;1.63;1.40;;;22.90;51.40;;;;;;6026325;23;20348;-85
2022/09/21 08:54:34;;;;;;;4.17;3.03;;;22.90;51.40;;;;;;5989827;23;20497;-86
2022/09/21 09:00:50;;;;;;;1.90;1.70;;;22.80;51.30;;;;;;6000993;24;20409;-84
2022/09/21 09:03:40;;;;;;;2.40;1.80;;;22.80;51.30;;;;;;5977624;24;20792;-84
2022/09/21 09:06:45;;;;;;;2.73;1.90;;;22.80;51.30;;;;;;5976433;24;20451;-85
2022/09/21 09:10:03;;;;;;;2.03;1.67;;;22.90;51.40;;;;;;5945339;24;20395;-84
2022/09/21 09:20:04;;;;;;;4.53;3.40;;;22.90;51.40;;;;;;6005758;23;20360;-85
2022/09/21 09:23:05;;;;;;;1.93;1.70;;;22.80;51.30;;;;;;6062078;23;20375;-85
2022/09/21 09:26:19;;;;;;;2.00;1.80;;;22.90;51.40;;;;;;6062223;23;20465;-85
2022/09/21 09:29:53;;;;;;;1.60;1.30;;;22.90;51.40;;;;;;6061816;23;20411;-84
2022/09/21 09:32:41;;;;;;;2.43;1.90;;;22.90;51.40;;;;;;6023411;23;20437;-85
2022/09/21 09:42:14;;;;;;;1.57;1.33;;;22.90;51.40;;;;;;6000917;24;20400;-84
2022/09/21 09:45:05;;;;;;;3.73;2.07;;;22.90;51.40;;;;;;6023450;23;20389;-84
2022/09/21 09:48:44;;;;;;;2.13;1.67;;;22.90;51.40;;;;;;6057188;23;20375;-84
2022/09/21 09:52:04;;;;;;;2.97;2.30;;;22.90;51.40;;;;;;5976478;23;20386;-84
2022/09/21 09:54:36;;;;;;;2.10;1.63;;;22.90;51.40;;;;;;6048732;23;20391;-84
2022/09/21 09:57:28;;;;;;;1.50;1.40;;;22.90;51.40;;;;;;6047754;23;20460;-84
2022/09/21 10:00:15;;;;;;;2.07;1.40;;;22.90;51.30;;;;;;6054060;23;20657;-83
2022/09/21 10:02:53;;;;;;;1.63;1.33;;;22.90;51.30;;;;;;6032154;23;20388;-85
2022/09/21 10:05:37;;;;;;;1.97;1.60;;;22.90;51.30;;;;;;6077280;23;20373;-85
2022/09/21 10:08:30;;;;;;;2.57;1.77;;;22.90;51.30;;;;;;6118033;23;20389;-85
2022/09/21 10:14:35;;;;;;;3.50;3.07;;;22.90;51.20;;;;;;6146861;23;20373;-84
2022/09/21 10:17:37;;;;;;;1.40;1.20;;;22.90;51.30;;;;;;6121325;23;20377;-85
2022/09/21 10:20:17;;;;;;;2.03;1.30;;;22.90;51.30;;;;;;6108392;23;20375;-85
2022/09/21 10:22:53;;;;;;;2.40;2.20;;;22.90;51.30;;;;;;6122925;23;20364;-85
2022/09/21 10:39:21;;;;;;;1.90;1.73;;;22.90;51.30;;;;;;6175320;23;20404;-84
2022/09/21 10:45:30;;;;;;;3.07;2.03;;;22.80;51.30;;;;;;6149934;23;20381;-84
2022/09/21 10:48:16;;;;;;;3.20;2.73;;;22.80;51.30;;;;;;6098565;23;20469;-84
2022/09/21 11:01:41;;;;;;;3.13;2.13;;;22.80;51.30;;;;;;6146773;23;20389;-85
2022/09/21 11:04:50;;;;;;;3.97;2.20;;;22.80;51.40;;;;;;6123596;23;20385;-85
2022/09/21 11:07:55;;;;;;;7.97;4.10;;;22.80;51.40;;;;;;6071688;23;20386;-84
2022/09/21 11:10:55;;;;;;;8.13;4.70;;;22.80;51.40;;;;;;6235453;23;20424;-85
2022/09/21 11:21:20;;;;;;;;;;;;;;;;;;;;;
2022/09/21 11:24:25;;;;;;;9.87;5.07;;;22.80;51.40;;;;;;6175187;23;20380;-85
2022/09/21 11:34:52;;;;;;;14.53;6.70;;;22.80;51.50;;;;;;5976734;24;20381;-84
2022/09/21 11:38:03;;;;;;;15.57;7.37;;;22.80;51.50;;;;;;5909724;24;20450;-83
2022/09/21 11:54:11;;;;;;;17.30;9.20;;;22.80;51.40;;;;;;6255218;22;20448;-86
2022/09/21 11:57:18;;;;;;;16.50;6.47;;;22.80;51.40;;;;;;6113142;23;20413;-86
2022/09/21 12:17:33;;;;;;;;;;;;;;;;;;;;;
2022/09/21 12:48:16;;;;;;;30.87;11.33;;;22.90;51.50;;;;;;6055544;23;20391;-88
2022/09/21 13:01:27;;;;;;;26.70;11.60;;;22.90;51.50;;;;;;6057393;23;20478;-87
2022/09/21 13:04:43;;;;;;;;;;;;;;;;;;;;;
2022/09/21 13:31:18;;;;;;;;;;;;;;;;;;;;;
2022/09/21 13:44:52;;;;;;;;;;;;;;;;;;;;;
2022/09/21 14:14:41;;;;;;;18.97;9.17;;;23.20;51.60;;;;;;6110968;23;20500;-84
2022/09/21 14:17:42;;;;;;;19.70;9.93;;;23.20;51.70;;;;;;6071263;23;20384;-84
2022/09/21 14:21:07;;;;;;;14.97;7.93;;;23.30;51.70;;;;;;6050950;23;20398;-84
2022/09/21 14:34:25;;;;;;;17.30;8.90;;;23.30;51.70;;;;;;6055033;23;20471;-84
2022/09/21 14:37:21;;;;;;;15.67;9.30;;;23.30;51.70;;;;;;6082792;23;20735;-84
2022/09/21 14:40:42;;;;;;;24.00;9.57;;;23.30;51.70;;;;;;6146042;23;20386;-84
2022/09/21 14:43:19;;;;;;;19.33;9.83;;;23.30;51.70;;;;;;6145583;23;20394;-84
2022/09/21 14:49:38;;;;;;;14.43;8.43;;;23.30;51.60;;;;;;6172297;23;20504;-84
2022/09/21 14:52:24;;;;;;;16.50;9.63;;;23.40;51.70;;;;;;6147001;23;20435;-85
2022/09/21 14:55:28;;;;;;;19.73;10.37;;;23.40;51.70;;;;;;6263532;23;20371;-84
2022/09/21 14:58:46;;;;;;;13.60;8.77;;;23.30;51.60;;;;;;6261595;23;20461;-85
2022/09/21 15:01:37;;;;;;;18.77;9.10;;;23.40;51.60;;;;;;6204255;23;20389;-82
2022/09/21 15:04:57;;;;;;;16.83;9.70;;;23.40;51.60;;;;;;6265692;23;20374;-83
2022/09/21 15:11:18;;;;;;;13.30;6.90;;;23.40;51.60;;;;;;6264383;23;20789;-85
2022/09/21 15:14:33;;;;;;;14.70;7.93;;;23.40;51.60;;;;;;6261614;23;20417;-85
2022/09/21 15:17:28;;;;;;;14.40;7.93;;;23.40;51.60;;;;;;6116330;23;20392;-86
2022/09/21 15:20:34;;;;;;;15.50;8.87;;;23.40;51.60;;;;;;6116136;23;20665;-85
2022/09/21 15:23:17;;;;;;;12.30;8.67;;;23.40;51.60;;;;;;6116840;23;20404;-85
2022/09/21 15:26:02;;;;;;;16.73;8.10;;;23.40;51.60;;;;;;6093689;23;20381;-85
2022/09/21 15:28:42;;;;;;;16.93;8.00;;;23.40;51.60;;;;;;6115996;23;20435;-85
2022/09/21 15:31:12;;;;;;;11.93;7.47;;;23.50;51.70;;;;;;6141025;23;20388;-85
2022/09/21 15:33:51;;;;;;;16.30;8.17;;;23.50;51.70;;;;;;6116386;23;20417;-85
2022/09/21 15:36:21;;;;;;;13.40;7.10;;;23.40;51.60;;;;;;6107670;23;20388;-85
2022/09/21 15:38:50;;;;;;;12.40;7.50;;;23.50;51.70;;;;;;6141204;23;20421;-84
2022/09/21 15:41:52;;;;;;;14.57;9.60;;;23.50;51.60;;;;;;6117009;23;20380;-85
2022/09/21 15:44:50;;;;;;;12.20;8.10;;;23.50;51.60;;;;;;6116105;23;20802;-85
2022/09/21 15:47:28;;;;;;;14.90;7.10;;;23.50;51.60;;;;;;6083553;23;20386;-85
2022/09/21 15:50:08;;;;;;;10.60;6.63;;;23.50;51.70;;;;;;6115331;23;20469;-84
2022/09/21 15:53:46;;;;;;;16.33;8.03;;;23.50;51.60;;;;;;6136267;23;20897;-85
2022/09/21 15:56:05;;;;;;;9.17;6.67;;;23.60;51.70;;;;;;6234505;22;20383;-84
2022/09/21 16:02:16;;;;;;;8.53;5.93;;;23.50;51.60;;;;;;6262445;23;20345;-85
2022/09/21 16:04:58;;;;;;;10.70;6.60;;;23.60;51.70;;;;;;6261417;23;20444;-85
2022/09/21 16:07:39;;;;;;;11.67;7.93;;;23.60;51.70;;;;;;6260852;23;20446;-85
2022/09/21 16:16:19;;;;;;;11.33;7.13;;;23.60;51.60;;;;;;6229573;23;20362;-84
2022/09/21 16:18:50;;;;;;;9.90;7.03;;;23.50;51.60;;;;;;6204326;23;20370;-85
2022/09/21 16:22:11;;;;;;;10.03;6.43;;;23.60;51.70;;;;;;6204875;23;20378;-85
2022/09/21 16:25:03;;;;;;;10.10;6.30;;;23.60;51.60;;;;;;6204768;23;20378;-85
2022/09/21 16:27:48;;;;;;;10.40;6.17;;;23.60;51.70;;;;;;6204622;23;20383;-84
2022/09/21 16:30:57;;;;;;;12.70;7.17;;;23.60;51.70;;;;;;6207095;23;20851;-84
2022/09/21 16:33:39;;;;;;;12.93;8.03;;;23.60;51.70;;;;;;6231712;23;20594;-84
2022/09/21 16:36:43;;;;;;;11.20;7.20;;;23.60;51.80;;;;;;6204913;23;20385;-84
2022/09/21 16:39:33;;;;;;;15.73;7.53;;;23.60;51.80;;;;;;6206287;23;20799;-82
2022/09/21 16:42:07;;;;;;;16.87;8.50;;;23.50;51.70;;;;;;6211072;23;20398;-83
2022/09/21 16:44:35;;;;;;;11.80;7.70;;;23.50;51.70;;;;;;6207166;23;20401;-84
2022/09/21 16:47:13;;;;;;;14.00;7.20;;;23.50;51.70;;;;;;6206838;23;20793;-84
2022/09/21 16:49:39;;;;;;;12.10;8.00;;;23.50;51.70;;;;;;6207205;23;20373;-84
2022/09/21 16:52:11;;;;;;;13.60;7.50;;;23.50;51.70;;;;;;6206517;23;20425;-83
2022/09/21 16:54:38;;;;;;;15.17;6.93;;;23.50;51.60;;;;;;6232188;23;20390;-84
2022/09/21 16:57:21;;;;;;;15.90;7.17;;;23.50;51.60;;;;;;6207358;23;20374;-84
2022/09/21 17:03:22;;;;;;;11.40;7.20;;;23.60;51.70;;;;;;6158011;22;20387;-83
2022/09/21 17:05:49;;;;;;;13.77;7.77;;;23.50;51.60;;;;;;6262395;23;20378;-83
2022/09/21 17:08:50;;;;;;;13.00;8.10;;;23.50;51.60;;;;;;6236527;23;20469;-83
2022/09/21 17:11:20;;;;;;;15.33;8.10;;;23.50;51.60;;;;;;6262797;23;20385;-84
2022/09/21 17:13:56;;;;;;;13.13;6.70;;;23.50;51.70;;;;;;6238672;23;20468;-83
2022/09/21 17:16:37;;;;;;;11.00;6.87;;;23.50;51.70;;;;;;6262840;23;20377;-83
2022/09/21 17:19:11;;;;;;;13.17;7.30;;;23.50;51.70;;;;;;6263102;23;20373;-83
2022/09/21 17:21:48;;;;;;;20.97;7.37;;;23.60;51.70;;;;;;6260642;23;20441;-83
2022/09/21 17:24:20;;;;;;;15.87;7.40;;;23.60;51.80;;;;;;6235348;23;20390;-83
2022/09/21 17:26:51;;;;;;;15.60;7.93;;;23.50;51.70;;;;;;6264314;22;20365;-83
2022/09/21 17:29:48;;;;;;;;;;;;;;;;;;;;;
2022/09/21 17:39:21;;;;;;;11.37;7.47;;;23.40;51.60;;;;;;6201498;23;20634;-82
2022/09/21 17:42:35;;;;;;;14.80;8.53;;;23.40;51.70;;;;;;6175653;23;20692;-83
2022/09/21 17:45:34;;;;;;;15.63;7.40;;;23.40;51.70;;;;;;6174862;23;20381;-83
2022/09/21 17:48:22;;;;;;;11.73;6.97;;;23.40;51.70;;;;;;6174413;23;20379;-84
2022/09/21 17:50:58;;;;;;;11.70;7.00;;;23.40;51.70;;;;;;6164284;23;20399;-83
2022/09/21 17:54:12;;;;;;;17.00;8.43;;;23.40;51.70;;;;;;6199393;23;20457;-83
2022/09/21 17:56:56;;;;;;;13.27;6.50;;;23.40;51.70;;;;;;6176139;23;20402;-83
2022/09/21 17:59:59;;;;;;;12.53;7.27;;;23.40;51.70;;;;;;6175878;23;20378;-83
2022/09/21 18:02:41;;;;;;;12.13;6.83;;;23.40;51.70;;;;;;6176083;23;20378;-83
2022/09/21 18:05:33;;;;;;;11.90;6.70;;;23.40;51.70;;;;;;6183200;23;20793;-83
2022/09/21 18:08:05;;;;;;;11.27;7.30;;;23.40;51.70;;;;;;6258205;23;20369;-83
2022/09/21 18:10:38;;;;;;;15.27;8.20;;;23.40;51.70;;;;;;6264020;23;20369;-83
2022/09/21 18:16:39;;;;;;;9.77;6.97;;;23.50;51.80;;;;;;6266250;22;20719;-83
2022/09/21 18:19:25;;;;;;;10.73;6.80;;;23.40;51.70;;;;;;6263525;23;20380;-83
2022/09/21 18:22:16;;;;;;;9.43;6.83;;;23.40;51.70;;;;;;6264375;23;20373;-83
2022/09/21 18:24:54;;;;;;;11.93;6.70;;;23.40;51.70;;;;;;6263997;23;20723;-83
2022/09/21 18:27:23;;;;;;;10.30;7.43;;;23.40;51.70;;;;;;6262172;23;20759;-84
2022/09/21 18:29:50;;;;;;;11.37;6.40;;;23.50;51.80;;;;;;6261838;23;20381;-84
2022/09/21 18:32:28;;;;;;;13.37;7.07;;;23.40;51.70;;;;;;6261663;23;20427;-84
2022/09/21 18:35:12;;;;;;;13.20;7.20;;;23.40;51.60;;;;;;6261730;23;20404;-84
2022/09/21 18:38:14;;;;;;;10.50;6.50;;;23.40;51.60;;;;;;6261734;23;20400;-84
2022/09/21 18:40:50;;;;;;;11.40;7.20;;;23.40;51.60;;;;;;6241470;23;20376;-85
2022/09/21 18:43:38;;;;;;;14.67;7.10;;;23.40;51.60;;;;;;6261821;23;20380;-84
2022/09/21 18:46:37;;;;;;;14.63;6.93;;;23.40;51.60;;;;;;6262756;23;20423;-85
2022/09/21 18:49:41;;;;;;;6.70;5.37;;;23.40;51.60;;;;;;6263107;23;20373;-84
2022/09/21 18:52:46;;;;;;;9.20;6.27;;;23.40;51.60;;;;;;6263880;23;20423;-84
2022/09/21 18:58:16;;;;;;;7.67;5.30;;;23.40;51.70;;;;;;6244827;22;20369;-84
2022/09/21 19:00:47;;;;;;;8.60;5.90;;;23.40;51.70;;;;;;6258628;23;20405;-84
2022/09/21 19:03:24;;;;;;;13.90;6.90;;;23.40;51.60;;;;;;6264671;23;20468;-84
2022/09/21 19:05:54;;;;;;;12.87;7.00;;;23.40;51.60;;;;;;6264668;23;20407;-84
2022/09/21 19:08:54;;;;;;;9.53;6.37;;;23.40;51.60;;;;;;6264228;23;20385;-84
2022/09/21 19:11:30;;;;;;;11.33;6.47;;;23.40;51.60;;;;;;6263941;22;20360;-84
2022/09/21 19:13:59;;;;;;;9.93;5.53;;;23.30;51.60;;;;;;6261275;23;20417;-84
2022/09/21 19:16:48;;;;;;;11.07;6.10;;;23.40;51.60;;;;;;6261469;23;20377;-84
2022/09/21 19:19:37;;;;;;;8.50;5.57;;;23.40;51.60;;;;;;6242305;23;20377;-85
2022/09/21 19:22:09;;;;;;;8.67;6.17;;;23.30;51.60;;;;;;6261518;23;20370;-84
2022/09/21 19:31:15;;;;;;;11.80;6.90;;;23.30;51.60;;;;;;6262476;23;20854;-84
2022/09/21 19:33:44;;;;;;;10.90;6.13;;;23.30;51.60;;;;;;6257400;23;20427;-84
2022/09/21 19:36:23;;;;;;;10.03;5.90;;;23.30;51.60;;;;;;6260493;23;20381;-84
2022/09/21 19:43:02;;;;;;;9.10;5.30;;;23.30;51.60;;;;;;6262284;23;20375;-84
2022/09/21 19:49:26;;;;;;;9.87;5.20;;;23.20;51.60;;;;;;6261172;23;20369;-83
2022/09/21 19:51:59;;;;;;;12.60;6.50;;;23.30;51.70;;;;;;6205982;23;20384;-84
2022/09/21 20:01:01;;;;;;;10.07;6.00;;;23.20;51.60;;;;;;6263344;23;20353;-84
2022/09/21 20:10:42;;;;;;;11.00;6.00;;;23.20;51.70;;;;;;6200685;22;20347;-84
2022/09/21 20:13:30;;;;;;;9.73;5.77;;;23.20;51.70;;;;;;6174997;23;20399;-84
2022/09/21 20:16:40;;;;;;;7.37;5.33;;;23.20;51.70;;;;;;6174107;23;20387;-83
2022/09/21 20:19:24;;;;;;;9.50;5.40;;;23.20;51.70;;;;;;6174581;23;20410;-84
2022/09/21 20:22:17;;;;;;;7.00;4.40;;;23.20;51.70;;;;;;6174159;23;20778;-84
2022/09/21 20:25:05;;;;;;;7.27;5.17;;;23.20;51.70;;;;;;6164961;23;20414;-84
2022/09/21 20:28:20;;;;;;;9.10;5.57;;;23.20;51.70;;;;;;6172901;23;20653;-84
2022/09/21 20:30:53;;;;;;;8.10;5.43;;;23.20;51.60;;;;;;6169044;23;20887;-84
2022/09/21 20:33:30;;;;;;;7.10;5.27;;;23.20;51.60;;;;;;6143261;23;20479;-84
2022/09/21 20:36:18;;;;;;;7.03;5.50;;;23.20;51.70;;;;;;6143420;23;20386;-84
2022/09/21 20:39:02;;;;;;;8.53;4.70;;;23.20;51.60;;;;;;6144195;23;20395;-84
2022/09/21 20:41:57;;;;;;;9.07;5.13;;;23.20;51.60;;;;;;6142528;23;20373;-84
2022/09/21 20:44:51;;;;;;;11.43;5.60;;;23.20;51.60;;;;;;6170055;23;20371;-84
2022/09/21 20:47:24;;;;;;;9.03;5.10;;;23.20;51.60;;;;;;6170463;23;20407;-84
2022/09/21 20:50:02;;;;;;;8.00;5.40;;;23.20;51.60;;;;;;6173874;23;20836;-84
2022/09/21 20:53:01;;;;;;;7.23;4.90;;;23.20;51.60;;;;;;6173698;23;20414;-84
2022/09/21 20:55:44;;;;;;;;;;;;;;;;;;;;;
2022/09/21 20:58:22;;;;;;;8.40;5.07;;;23.20;51.60;;;;;;6199848;23;20375;-84
2022/09/21 21:01:16;;;;;;;8.73;5.87;;;23.10;51.50;;;;;;6173741;23;20426;-83
2022/09/21 21:03:59;;;;;;;;;;;;;;;;;;;;;
2022/09/21 21:06:33;;;;;;;6.13;4.60;;;23.20;51.40;;;;;;6211511;23;20393;-83
2022/09/21 21:09:07;;;;;;;7.70;4.60;;;23.20;51.60;;;;;;6260475;23;20412;-84
2022/09/21 21:11:40;;;;;;;7.10;4.67;;;23.20;51.60;;;;;;6258553;23;20385;-83
2022/09/21 21:14:11;;;;;;;7.30;5.43;;;23.20;51.60;;;;;;6259757;23;20425;-85
2022/09/21 21:16:40;;;;;;;5.53;4.63;;;23.20;51.60;;;;;;6252299;23;20436;-84
2022/09/21 21:19:16;;;;;;;7.83;4.80;;;23.20;51.60;;;;;;6261316;23;20405;-84
2022/09/21 21:21:50;;;;;;;7.80;4.80;;;23.20;51.60;;;;;;6261653;23;20377;-83
2022/09/21 21:27:22;;;;;;;8.77;5.30;;;23.20;51.60;;;;;;6262400;23;20385;-84
2022/09/21 21:29:52;;;;;;;7.90;4.87;;;23.20;51.60;;;;;;6213807;23;20378;-84
2022/09/21 21:32:23;;;;;;;9.60;4.53;;;23.20;51.60;;;;;;6260884;23;20467;-84
2022/09/21 21:34:52;;;;;;;7.57;4.17;;;23.20;51.60;;;;;;6236551;23;20614;-83
2022/09/21 21:37:30;;;;;;;8.70;4.57;;;23.20;51.60;;;;;;6261620;23;20381;-84
2022/09/21 21:40:09;;;;;;;6.07;4.90;;;23.20;51.60;;;;;;6259006;23;20385;-83
2022/09/21 21:42:40;;;;;;;6.97;4.80;;;23.20;51.60;;;;;;6261280;23;20464;-83
2022/09/21 21:45:26;;;;;;;7.80;5.17;;;23.20;51.60;;;;;;6262832;23;20433;-83
2022/09/21 21:48:11;;;;;;;7.40;4.40;;;23.20;51.60;;;;;;6256481;23;20381;-83
2022/09/21 21:51:16;;;;;;;5.57;3.93;;;23.20;51.60;;;;;;6264731;22;20368;-83
2022/09/21 21:54:01;;;;;;;7.57;4.77;;;23.20;51.60;;;;;;6262407;23;20417;-83
2022/09/21 21:56:39;;;;;;;8.77;5.47;;;23.20;51.60;;;;;;6264538;23;20473;-83
2022/09/21 21:59:09;;;;;;;6.87;5.20;;;23.20;51.60;;;;;;6264391;23;20662;-83
2022/09/21 22:01:46;;;;;;;5.70;3.83;;;23.20;51.60;;;;;;6263366;23;20412;-83
2022/09/21 22:04:17;;;;;;;7.73;4.57;;;23.20;51.60;;;;;;6262799;23;20376;-83
2022/09/21 22:06:52;;;;;;;7.77;4.70;;;23.20;51.60;;;;;;6264122;23;20376;-83
2022/09/21 22:09:27;;;;;;;7.03;4.20;;;23.20;51.60;;;;;;6262790;23;20377;-83
2022/09/21 22:15:51;;;;;;;8.40;5.20;;;23.20;51.60;;;;;;6264818;23;20360;-84
2022/09/21 22:18:32;;;;;;;7.43;4.97;;;23.20;51.60;;;;;;6262641;23;20432;-83